createdAt,value
2022-07-31T00:00:25.603Z,54.50
2022-07-31T00:02:52.481Z,56.00
2022-07-31T00:05:19.349Z,55.10
2022-07-31T00:07:46.507Z,55.20
2022-07-31T00:10:13.291Z,56.80
2022-07-31T00:12:40.089Z,56.70
2022-07-31T00:15:09.967Z,55.30
2022-07-31T00:17:39.399Z,55.40
2022-07-31T00:20:06.979Z,55.50
2022-07-31T00:22:33.859Z,55.50
2022-07-31T00:25:00.624Z,55.90
2022-07-31T00:27:27.775Z,55.60
2022-07-31T00:29:54.627Z,55.80
2022-07-31T00:32:21.499Z,55.70
2022-07-31T00:34:50.475Z,55.90
2022-07-31T00:37:17.330Z,56.70
2022-07-31T00:39:44.199Z,56.00
2022-07-31T00:42:37.425Z,56.10
2022-07-31T00:45:04.986Z,56.20
2022-07-31T00:47:32.938Z,56.30
2022-07-31T00:50:00.878Z,56.20
2022-07-31T00:52:27.663Z,57.90
2022-07-31T00:54:54.522Z,56.30
2022-07-31T00:57:21.458Z,57.80
2022-07-31T00:59:48.572Z,56.50
2022-07-31T01:02:15.486Z,56.50
2022-07-31T01:04:44.479Z,56.70
2022-07-31T01:07:12.761Z,56.60
2022-07-31T01:09:39.784Z,56.70
2022-07-31T01:12:18.712Z,56.60
2022-07-31T01:15:07.132Z,56.70
2022-07-31T01:17:35.236Z,57.50
2022-07-31T01:20:02.335Z,57.50
2022-07-31T01:22:35.397Z,56.80
2022-07-31T01:25:21.249Z,56.70
2022-07-31T01:28:33.027Z,56.70
2022-07-31T01:31:37.249Z,57.70
2022-07-31T01:34:10.903Z,57.10
2022-07-31T01:36:44.291Z,56.60
2022-07-31T01:39:12.321Z,57.40
2022-07-31T01:41:45.898Z,56.60
2022-07-31T01:44:15.451Z,56.90
2022-07-31T01:46:44.736Z,57.10
2022-07-31T01:49:14.263Z,56.80
2022-07-31T01:51:44.992Z,57.30
2022-07-31T01:54:13.412Z,57.70
2022-07-31T01:56:40.859Z,57.90
2022-07-31T01:59:20.640Z,57.10
2022-07-31T02:02:10.015Z,57.00
2022-07-31T02:04:38.644Z,57.10
2022-07-31T02:07:08.066Z,58.00
2022-07-31T02:09:37.616Z,57.30
2022-07-31T02:12:09.733Z,57.50
2022-07-31T02:14:42.035Z,58.30
2022-07-31T02:17:11.673Z,57.70
2022-07-31T02:20:07.802Z,58.20
2022-07-31T02:22:34.954Z,57.60
2022-07-31T02:25:03.339Z,57.60
2022-07-31T02:27:53.960Z,57.70
2022-07-31T02:30:18.840Z,57.80
2022-07-31T02:32:49.792Z,57.70
2022-07-31T02:35:17.487Z,57.60
2022-07-31T02:37:45.397Z,57.70
2022-07-31T02:40:15.735Z,57.80
2022-07-31T02:42:43.347Z,58.70
2022-07-31T02:45:11.019Z,57.80
2022-07-31T02:47:38.270Z,57.80
2022-07-31T02:50:09.622Z,57.70
2022-07-31T02:52:38.694Z,58.60
2022-07-31T02:55:06.063Z,59.30
2022-07-31T02:57:32.928Z,59.20
2022-07-31T02:59:59.895Z,57.90
2022-07-31T03:02:37.143Z,57.80
2022-07-31T03:05:05.910Z,58.00
2022-07-31T03:07:32.951Z,58.00
2022-07-31T03:09:59.844Z,57.70
2022-07-31T03:13:03.624Z,57.90
2022-07-31T03:17:58.932Z,58.10
2022-07-31T03:20:34.944Z,57.90
2022-07-31T03:23:03.511Z,58.20
2022-07-31T03:25:33.351Z,58.20
2022-07-31T03:28:00.169Z,58.10
2022-07-31T03:30:27.556Z,58.10
2022-07-31T03:32:57.446Z,58.00
2022-07-31T03:35:25.208Z,58.10
2022-07-31T03:37:52.366Z,58.30
2022-07-31T03:40:19.448Z,58.20
2022-07-31T03:42:48.937Z,58.30
2022-07-31T03:45:16.334Z,58.20
2022-07-31T03:50:11.482Z,57.90
2022-07-31T03:55:09.992Z,58.20
2022-07-31T03:57:38.615Z,58.20
2022-07-31T04:00:07.320Z,58.30
2022-07-31T04:02:43.926Z,58.10
2022-07-31T04:05:46.131Z,58.20
2022-07-31T04:08:13.319Z,58.10
2022-07-31T04:10:40.886Z,58.20
2022-07-31T04:13:11.100Z,58.20
2022-07-31T04:15:38.131Z,58.10
2022-07-31T04:18:04.999Z,58.30
2022-07-31T04:23:04.742Z,58.20
2022-07-31T04:28:35.487Z,58.40
2022-07-31T04:31:02.420Z,58.30
2022-07-31T04:33:31.659Z,58.30
2022-07-31T04:35:58.562Z,58.40
2022-07-31T04:38:26.456Z,60.50
2022-07-31T04:40:53.341Z,58.40
2022-07-31T04:43:20.230Z,58.30
2022-07-31T04:45:47.085Z,60.40
2022-07-31T04:48:14.009Z,58.30
2022-07-31T04:50:40.832Z,58.30
2022-07-31T04:53:07.715Z,58.30
2022-07-31T04:55:38.831Z,58.20
2022-07-31T04:58:06.095Z,60.00
2022-07-31T05:00:33.031Z,58.20
2022-07-31T05:03:00.102Z,58.20
2022-07-31T05:05:26.885Z,58.10
2022-07-31T05:07:53.877Z,58.20
2022-07-31T05:10:43.886Z,58.30
2022-07-31T05:13:10.823Z,58.30
2022-07-31T05:15:37.886Z,58.20
2022-07-31T05:18:07.528Z,58.30
2022-07-31T05:20:54.334Z,58.30
2022-07-31T05:23:29.468Z,60.30
2022-07-31T05:26:07.066Z,58.40
2022-07-31T05:28:34.446Z,58.40
2022-07-31T05:31:02.271Z,58.30
2022-07-31T05:33:29.820Z,59.30
2022-07-31T05:35:57.451Z,59.50
2022-07-31T05:38:25.271Z,59.40
2022-07-31T05:41:10.135Z,58.40
2022-07-31T05:44:00.313Z,58.90
2022-07-31T05:46:34.828Z,57.90
2022-07-31T05:49:01.737Z,57.90
2022-07-31T05:51:30.544Z,58.00
2022-07-31T05:53:57.317Z,58.00
2022-07-31T05:56:42.691Z,58.10
2022-07-31T05:59:10.602Z,59.40
2022-07-31T06:01:39.461Z,58.30
2022-07-31T06:04:06.636Z,59.10
2022-07-31T06:06:40.203Z,60.00
2022-07-31T06:09:07.049Z,62.80
2022-07-31T06:11:41.358Z,61.90
2022-07-31T06:14:10.064Z,62.40
2022-07-31T06:17:09.424Z,62.30
2022-07-31T06:19:38.356Z,62.40
2022-07-31T06:22:05.453Z,62.00
2022-07-31T06:24:33.545Z,61.50
2022-07-31T06:27:02.244Z,61.20
2022-07-31T06:29:41.336Z,61.00
2022-07-31T06:32:09.431Z,60.90
2022-07-31T06:34:36.885Z,60.70
2022-07-31T06:37:04.206Z,60.50
2022-07-31T06:39:54.799Z,60.30
2022-07-31T06:42:42.371Z,60.20
2022-07-31T06:45:48.884Z,59.80
2022-07-31T06:48:33.539Z,60.00
2022-07-31T06:51:30.361Z,60.30
2022-07-31T06:53:54.553Z,60.10
2022-07-31T06:56:21.490Z,61.90
2022-07-31T06:58:48.687Z,61.70
2022-07-31T07:01:15.513Z,61.30
2022-07-31T07:03:42.301Z,61.30
2022-07-31T07:06:09.100Z,61.30
2022-07-31T07:08:35.985Z,61.30
2022-07-31T07:11:02.849Z,59.70
2022-07-31T07:13:46.270Z,59.60
2022-07-31T07:16:15.535Z,60.90
2022-07-31T07:18:45.665Z,60.80
2022-07-31T07:21:12.907Z,60.50
2022-07-31T07:23:40.080Z,60.90
2022-07-31T07:26:25.569Z,59.70
2022-07-31T07:28:52.678Z,61.00
2022-07-31T07:31:19.506Z,60.90
2022-07-31T07:33:47.760Z,60.90
2022-07-31T07:36:24.735Z,60.70
2022-07-31T07:38:57.678Z,60.40
2022-07-31T07:41:25.523Z,60.40
2022-07-31T07:43:53.445Z,60.80
2022-07-31T07:46:24.011Z,60.60
2022-07-31T07:48:54.709Z,60.40
2022-07-31T07:51:35.924Z,60.60
2022-07-31T07:54:40.662Z,60.90
2022-07-31T07:57:07.599Z,60.40
2022-07-31T07:59:53.334Z,60.60
2022-07-31T08:02:42.639Z,61.50
2022-07-31T08:05:09.833Z,59.50
2022-07-31T08:07:42.090Z,60.40
2022-07-31T08:10:30.312Z,60.30
2022-07-31T08:13:06.190Z,60.70
2022-07-31T08:15:52.078Z,60.80
2022-07-31T08:18:39.195Z,60.90
2022-07-31T08:21:06.383Z,60.50
2022-07-31T08:23:33.169Z,62.50
2022-07-31T08:26:04.312Z,60.80
2022-07-31T08:28:34.290Z,60.60
2022-07-31T08:31:03.370Z,60.40
2022-07-31T08:33:33.098Z,60.80
2022-07-31T08:36:00.973Z,60.30
2022-07-31T08:38:28.655Z,60.50
2022-07-31T08:41:33.662Z,60.50
2022-07-31T08:44:04.380Z,60.60
2022-07-31T08:46:38.616Z,60.60
2022-07-31T08:49:07.025Z,60.30
2022-07-31T08:51:50.557Z,60.40
2022-07-31T08:54:54.074Z,60.20
2022-07-31T08:57:23.899Z,60.30
2022-07-31T08:59:52.519Z,60.60
2022-07-31T09:02:19.614Z,60.70
2022-07-31T09:05:16.718Z,61.00
2022-07-31T09:07:43.924Z,60.60
2022-07-31T09:10:21.576Z,59.40
2022-07-31T09:12:48.996Z,60.40
2022-07-31T09:15:22.193Z,60.60
2022-07-31T09:17:53.955Z,60.30
2022-07-31T09:20:24.227Z,60.60
2022-07-31T09:23:05.379Z,59.70
2022-07-31T09:25:32.758Z,60.60
2022-07-31T09:28:05.638Z,61.30
2022-07-31T09:30:34.119Z,60.70
2022-07-31T09:33:45.150Z,60.80
2022-07-31T09:36:31.693Z,60.60
2022-07-31T09:39:27.206Z,60.60
2022-07-31T09:42:16.112Z,60.90
2022-07-31T09:44:58.836Z,60.60
2022-07-31T09:47:32.351Z,61.40
2022-07-31T09:50:04.711Z,61.50
2022-07-31T09:52:32.823Z,60.70
2022-07-31T09:55:16.087Z,60.50
2022-07-31T09:57:57.509Z,60.60
2022-07-31T10:00:27.473Z,60.60
2022-07-31T10:02:56.813Z,60.40
2022-07-31T10:05:27.716Z,60.40
2022-07-31T10:08:00.512Z,60.40
2022-07-31T10:10:49.241Z,60.90
2022-07-31T10:13:46.376Z,61.40
2022-07-31T10:16:14.124Z,61.20
2022-07-31T10:18:49.448Z,61.30
2022-07-31T10:21:43.658Z,60.30
2022-07-31T10:24:23.783Z,60.10
2022-07-31T10:27:01.173Z,60.20
2022-07-31T10:29:32.228Z,60.10
2022-07-31T10:32:01.487Z,60.10
2022-07-31T10:34:29.278Z,60.30
2022-07-31T10:37:33.682Z,60.80
2022-07-31T10:40:29.144Z,60.00
2022-07-31T10:43:20.175Z,59.70
2022-07-31T10:46:04.562Z,59.70
2022-07-31T10:48:53.583Z,60.50
2022-07-31T10:51:55.946Z,60.10
2022-07-31T10:54:46.753Z,60.20
2022-07-31T10:57:34.877Z,59.90
2022-07-31T11:00:40.790Z,59.90
2022-07-31T11:03:21.503Z,60.30
2022-07-31T11:06:07.352Z,59.90
2022-07-31T11:08:54.700Z,60.10
2022-07-31T11:11:40.011Z,60.00
2022-07-31T11:14:33.831Z,60.20
2022-07-31T11:18:24.023Z,60.00
2022-07-31T11:20:31.959Z,60.00
2022-07-31T11:23:03.671Z,59.30
2022-07-31T11:25:33.406Z,59.90
2022-07-31T11:28:12.222Z,60.70
2022-07-31T11:30:56.859Z,60.00
2022-07-31T11:33:41.876Z,59.80
2022-07-31T11:36:15.970Z,59.90
2022-07-31T11:38:50.484Z,59.90
2022-07-31T11:41:22.119Z,59.90
2022-07-31T11:43:52.006Z,59.90
2022-07-31T11:46:33.195Z,59.80
2022-07-31T11:49:01.392Z,59.90
2022-07-31T11:51:29.580Z,60.00
2022-07-31T11:53:57.809Z,60.50
2022-07-31T11:56:27.101Z,59.80
2022-07-31T11:58:56.678Z,59.70
2022-07-31T12:01:28.892Z,59.80
2022-07-31T12:04:08.542Z,59.70
2022-07-31T12:06:36.967Z,59.80
2022-07-31T12:09:04.414Z,60.00
2022-07-31T12:11:31.406Z,61.00
2022-07-31T12:13:59.294Z,60.10
2022-07-31T12:16:26.108Z,60.00
2022-07-31T12:18:58.661Z,60.10
2022-07-31T12:21:37.181Z,59.10
2022-07-31T12:24:14.894Z,59.70
2022-07-31T12:26:51.355Z,60.00
2022-07-31T12:29:19.499Z,59.70
2022-07-31T12:31:54.137Z,59.70
2022-07-31T12:34:30.906Z,59.80
2022-07-31T12:37:02.198Z,59.40
2022-07-31T12:39:54.480Z,59.50
2022-07-31T12:42:31.267Z,59.70
2022-07-31T12:45:20.113Z,59.60
2022-07-31T12:47:51.619Z,59.60
2022-07-31T12:50:30.515Z,59.60
2022-07-31T12:53:00.577Z,59.60
2022-07-31T12:55:29.402Z,59.50
2022-07-31T12:57:56.875Z,59.50
2022-07-31T13:00:25.822Z,59.80
2022-07-31T13:02:57.032Z,59.50
2022-07-31T13:05:24.720Z,59.40
2022-07-31T13:07:52.230Z,59.50
2022-07-31T13:10:23.747Z,59.90
2022-07-31T13:12:51.876Z,59.60
2022-07-31T13:15:20.974Z,59.80
2022-07-31T13:17:50.323Z,59.50
2022-07-31T13:20:18.361Z,60.20
2022-07-31T13:22:45.190Z,58.70
2022-07-31T13:25:12.092Z,59.80
2022-07-31T13:27:39.416Z,59.90
2022-07-31T13:30:09.193Z,59.50
2022-07-31T13:32:36.184Z,59.20
2022-07-31T13:35:24.052Z,59.70
2022-07-31T13:37:50.707Z,59.20
2022-07-31T13:40:19.556Z,59.70
2022-07-31T13:42:46.553Z,59.60
2022-07-31T13:45:13.321Z,61.30
2022-07-31T13:47:50.705Z,59.50
2022-07-31T13:50:19.665Z,59.60
2022-07-31T13:52:46.482Z,59.20
2022-07-31T13:55:13.245Z,59.60
2022-07-31T13:57:40.106Z,59.80
2022-07-31T14:00:07.654Z,61.00
2022-07-31T14:02:34.663Z,59.30
2022-07-31T14:05:01.573Z,59.60
2022-07-31T14:07:45.099Z,59.70
2022-07-31T14:10:20.203Z,59.50
2022-07-31T14:12:47.957Z,59.40
2022-07-31T14:15:14.869Z,59.00
2022-07-31T14:17:41.606Z,59.20
2022-07-31T14:20:09.113Z,59.70
2022-07-31T14:22:35.950Z,58.50
2022-07-31T14:25:03.171Z,60.00
2022-07-31T14:27:30.340Z,59.50
2022-07-31T14:29:57.198Z,59.50
2022-07-31T14:32:25.040Z,59.90
2022-07-31T14:34:52.206Z,59.70
2022-07-31T14:37:20.400Z,60.10
2022-07-31T14:39:47.414Z,59.70
2022-07-31T14:42:14.475Z,58.70
2022-07-31T14:44:42.342Z,60.00
2022-07-31T14:47:11.095Z,59.60
2022-07-31T14:50:07.810Z,59.40
2022-07-31T14:52:26.641Z,59.50
2022-07-31T14:54:53.997Z,60.20
2022-07-31T14:57:22.269Z,59.70
2022-07-31T14:59:50.442Z,60.00
2022-07-31T15:02:22.168Z,59.70
2022-07-31T15:04:50.659Z,60.20
2022-07-31T15:07:34.784Z,59.50
2022-07-31T15:10:07.736Z,58.90
2022-07-31T15:12:34.877Z,59.30
2022-07-31T15:15:02.212Z,60.00
2022-07-31T15:17:28.979Z,60.00
2022-07-31T15:19:55.775Z,60.00
2022-07-31T15:22:22.679Z,59.00
2022-07-31T15:24:50.248Z,59.90
2022-07-31T15:27:18.804Z,60.20
2022-07-31T15:30:04.296Z,59.50
2022-07-31T15:32:33.062Z,60.20
2022-07-31T15:34:59.926Z,59.00
2022-07-31T15:37:26.746Z,60.10
2022-07-31T15:40:02.272Z,60.30
2022-07-31T15:42:34.532Z,60.40
2022-07-31T15:45:01.474Z,59.80
2022-07-31T15:47:28.447Z,60.40
2022-07-31T15:49:55.279Z,60.10
2022-07-31T15:52:22.184Z,60.30
2022-07-31T15:54:51.985Z,59.80
2022-07-31T15:57:22.721Z,60.40
2022-07-31T15:59:50.704Z,60.40
2022-07-31T16:02:17.652Z,59.90
2022-07-31T16:04:52.008Z,60.50
2022-07-31T16:08:32.163Z,60.40
2022-07-31T16:10:16.456Z,60.40
2022-07-31T16:12:47.951Z,60.20
2022-07-31T16:15:16.418Z,59.80
2022-07-31T16:17:44.086Z,60.60
2022-07-31T16:20:20.672Z,59.90
2022-07-31T16:22:55.828Z,59.90
2022-07-31T16:25:24.313Z,60.00
2022-07-31T16:27:51.127Z,59.90
2022-07-31T16:30:18.002Z,61.50
2022-07-31T16:32:45.202Z,60.70
2022-07-31T16:35:12.840Z,60.50
2022-07-31T16:37:52.554Z,60.30
2022-07-31T16:40:28.214Z,60.30
2022-07-31T16:43:47.584Z,60.70
2022-07-31T16:45:50.956Z,59.50
2022-07-31T16:48:18.170Z,60.20
2022-07-31T16:50:47.429Z,60.30
2022-07-31T16:54:10.437Z,60.00
2022-07-31T16:56:06.851Z,60.00
2022-07-31T16:58:34.682Z,60.70
2022-07-31T17:01:03.883Z,60.20
2022-07-31T17:03:58.361Z,60.00
2022-07-31T17:06:18.220Z,60.30
2022-07-31T17:09:15.923Z,60.00
2022-07-31T17:11:44.560Z,60.00
2022-07-31T17:14:11.495Z,60.30
2022-07-31T17:16:38.323Z,60.20
2022-07-31T17:19:05.781Z,59.20
2022-07-31T17:21:32.787Z,59.20
2022-07-31T17:23:59.780Z,60.20
2022-07-31T17:26:26.674Z,60.50
2022-07-31T17:28:55.926Z,60.50
2022-07-31T17:31:22.673Z,59.20
2022-07-31T17:33:59.013Z,60.70
2022-07-31T17:36:28.911Z,61.00
2022-07-31T17:38:56.807Z,60.00
2022-07-31T17:41:25.206Z,60.00
2022-07-31T17:43:55.593Z,59.80
2022-07-31T17:46:34.540Z,60.30
2022-07-31T17:49:05.940Z,60.60
2022-07-31T17:51:33.261Z,60.30
2022-07-31T17:54:00.632Z,61.20
2022-07-31T17:56:27.814Z,60.80
2022-07-31T17:58:55.838Z,61.70
2022-07-31T18:01:28.406Z,60.30
2022-07-31T18:03:55.615Z,60.60
2022-07-31T18:06:22.615Z,60.50
2022-07-31T18:08:49.516Z,60.60
2022-07-31T18:11:16.483Z,60.70
2022-07-31T18:13:47.935Z,61.60
2022-07-31T18:16:15.708Z,60.70
2022-07-31T18:18:43.013Z,60.30
2022-07-31T18:21:09.983Z,60.50
2022-07-31T18:23:36.865Z,60.80
2022-07-31T18:26:10.655Z,61.60
2022-07-31T18:28:37.531Z,60.80
2022-07-31T18:31:04.378Z,60.70
2022-07-31T18:33:51.079Z,60.80
2022-07-31T18:36:19.646Z,60.60
2022-07-31T18:38:47.762Z,59.50
2022-07-31T18:41:14.822Z,60.40
2022-07-31T18:43:41.591Z,60.30
2022-07-31T18:46:08.608Z,61.50
2022-07-31T18:48:35.508Z,60.40
2022-07-31T18:51:04.956Z,61.00
2022-07-31T18:53:33.142Z,60.80
2022-07-31T18:56:00.119Z,60.00
2022-07-31T18:58:26.983Z,59.70
2022-07-31T19:00:55.209Z,58.60
2022-07-31T19:03:23.485Z,57.60
2022-07-31T19:05:52.762Z,56.60
2022-07-31T19:08:20.463Z,55.90
2022-07-31T19:10:49.379Z,55.10
2022-07-31T19:13:19.058Z,54.40
2022-07-31T19:15:51.440Z,54.30
2022-07-31T19:18:20.417Z,53.20
2022-07-31T19:21:21.185Z,52.80
2022-07-31T19:23:45.354Z,51.50
2022-07-31T19:26:12.249Z,51.30
2022-07-31T19:28:39.895Z,51.80
2022-07-31T19:31:06.971Z,51.40
2022-07-31T19:33:34.051Z,51.40
2022-07-31T19:36:02.605Z,51.10
2022-07-31T19:38:31.685Z,50.80
2022-07-31T19:40:59.744Z,50.30
2022-07-31T19:43:26.841Z,50.00
2022-07-31T19:46:02.589Z,50.10
2022-07-31T19:48:40.954Z,50.20
2022-07-31T19:51:08.308Z,49.60
2022-07-31T19:53:35.306Z,49.50
2022-07-31T19:56:05.482Z,49.80
2022-07-31T19:58:36.604Z,50.00
2022-07-31T20:01:04.612Z,48.60
2022-07-31T20:03:31.495Z,49.30
2022-07-31T20:05:58.385Z,49.40
2022-07-31T20:08:25.340Z,49.30
2022-07-31T20:10:52.627Z,49.40
2022-07-31T20:13:19.628Z,49.50
2022-07-31T20:15:52.110Z,50.80
2022-07-31T20:18:27.331Z,50.10
2022-07-31T20:21:00.716Z,49.50
2022-07-31T20:23:27.845Z,50.40
2022-07-31T20:25:54.869Z,52.30
2022-07-31T20:28:21.722Z,51.40
2022-07-31T20:30:49.211Z,52.00
2022-07-31T20:33:16.067Z,52.00
2022-07-31T20:35:48.456Z,53.00
2022-07-31T20:38:17.753Z,53.50
2022-07-31T20:40:48.255Z,53.60
2022-07-31T20:43:25.416Z,54.50
2022-07-31T20:45:52.972Z,55.00
2022-07-31T20:48:24.496Z,56.20
2022-07-31T20:50:52.173Z,55.80
2022-07-31T20:53:19.545Z,55.60
2022-07-31T20:55:47.357Z,56.80
2022-07-31T20:58:14.332Z,57.10
2022-07-31T21:00:41.786Z,57.50
2022-07-31T21:03:08.678Z,57.40
2022-07-31T21:05:35.458Z,57.60
2022-07-31T21:08:02.315Z,58.40
2022-07-31T21:10:29.950Z,57.90
2022-07-31T21:12:57.646Z,58.00
2022-07-31T21:15:40.816Z,58.20
2022-07-31T21:18:19.346Z,58.10
2022-07-31T21:20:51.843Z,58.10
2022-07-31T21:23:21.828Z,58.10
2022-07-31T21:25:48.930Z,58.10
2022-07-31T21:28:16.014Z,58.60
2022-07-31T21:30:43.141Z,58.60
2022-07-31T21:33:10.326Z,58.90
2022-07-31T21:35:39.671Z,58.90
2022-07-31T21:38:12.078Z,58.70
2022-07-31T21:40:40.153Z,58.30
2022-07-31T21:43:07.614Z,58.50
2022-07-31T21:45:51.131Z,58.50
2022-07-31T21:48:23.480Z,58.80
2022-07-31T21:50:50.967Z,58.60
2022-07-31T21:53:17.757Z,58.70
2022-07-31T21:55:44.539Z,60.00
2022-07-31T21:58:11.426Z,59.00
2022-07-31T22:00:38.496Z,59.10
2022-07-31T22:03:06.319Z,59.10
2022-07-31T22:05:52.099Z,58.50
2022-07-31T22:08:19.498Z,58.60
2022-07-31T22:10:47.418Z,58.70
2022-07-31T22:13:14.194Z,58.60
2022-07-31T22:15:58.358Z,59.00
2022-07-31T22:18:30.175Z,59.30
2022-07-31T22:20:58.109Z,58.80
2022-07-31T22:23:27.320Z,58.10
2022-07-31T22:25:54.834Z,59.30
2022-07-31T22:28:22.984Z,59.10
2022-07-31T22:30:50.669Z,58.90
2022-07-31T22:33:17.696Z,59.10
2022-07-31T22:35:44.828Z,59.40
2022-07-31T22:38:26.487Z,59.30
2022-07-31T22:40:53.404Z,59.40
2022-07-31T22:44:12.832Z,59.80
2022-07-31T22:46:08.898Z,59.80
2022-07-31T22:48:38.611Z,59.30
2022-07-31T22:51:05.556Z,58.70
2022-07-31T22:53:32.470Z,59.60
2022-07-31T22:55:59.249Z,60.10
2022-07-31T22:58:26.011Z,59.60
2022-07-31T23:00:53.013Z,59.70
2022-07-31T23:03:19.764Z,60.30
2022-07-31T23:06:02.792Z,60.30
2022-07-31T23:08:33.462Z,60.40
2022-07-31T23:11:00.271Z,60.50
2022-07-31T23:13:27.081Z,61.90
2022-07-31T23:15:53.814Z,60.60
2022-07-31T23:18:20.650Z,61.90
2022-07-31T23:20:47.430Z,60.90
2022-07-31T23:23:14.150Z,59.40
2022-07-31T23:25:40.994Z,60.80
2022-07-31T23:28:07.771Z,60.50
2022-07-31T23:30:34.542Z,60.50
2022-07-31T23:33:01.344Z,61.30
2022-07-31T23:35:28.167Z,60.70
2022-07-31T23:37:54.875Z,60.90
2022-07-31T23:40:21.756Z,60.90
2022-07-31T23:42:48.653Z,61.10
2022-07-31T23:45:15.775Z,61.10
2022-07-31T23:47:45.105Z,61.10
2022-07-31T23:50:14.579Z,61.60
2022-07-31T23:52:42.421Z,60.60
2022-07-31T23:55:09.692Z,60.30
2022-07-31T23:57:36.667Z,61.10
